Aérodrome :
LOGIN :

S'inscrire | Disclaimer

   EN    FR    IT 

 










Légende :    VFR   VFR Marginal   IFR   IFR Intensif   IFR Très Intensif
Visi : 
Plafond : 
>= 8 km
>= 3000ft
5 à 8 km
1000 à 3000 ft
1500m à 5 km
500 à 1000 ft
800 à 1500m
200 à 500 ft
< 800m
< 200 ft
Symboles :   Orages  Brouillard  Fortes neiges  Fortes précipitations  Vent > 20 kt
SIGMETs :   Divers  Orages  Givrage  Turbulence  Onde Orograph.  Cendres Volcan.







- Altitude de l'aérodrome : 364 ft
- Voir les cartes d'approche


LFAQ - Albert Bray

DERNIER METAR :
  • 140800Z AUTO 23024KT 9999 -RA BKN019/// BKN026/// OVC035/// ///CB 04/02 Q0997 TEMPO 25020G35KT 3000 SHRA BKN007 BKN013CB

METARs EXPIRÉS :
  • 140730Z AUTO 23017KT 9999 BKN028/// BKN050/// BKN088/// ///TCU 04/02 Q0998 TEMPO 25020G35KT 3000 SHRA BKN007 BKN013CB
  • 140700Z AUTO 23013KT 9999 FEW022/// SCT042/// BKN054/// ///TCU 04/02 Q0997 TEMPO 25020G35KT 3000 SHRA BKN007 BKN013CB
  • 140630Z AUTO 24020KT 9999 SCT024/// SCT032/// BKN050/// ///TCU 05/02 Q0998 TEMPO 25020G35KT 3000 SHRA BKN007 BKN013CB
  • 140600Z AUTO 22020KT 9999 -RA FEW026 BKN038 BKN044 04/02 Q0997 TEMPO 25020G35KT 3000 SHRA BKN007 BKN013CB
  • 140530Z AUTO 23016KT 9999 BKN041/// BKN062/// BKN130/// ///TCU 05/02 Q0997

TAF TAF LFAQ
Valide du 14 à 06h jusqu'au 14 à 15h UTC


140500Z 1406/1415 25015KT 9999 BKN030
TEMPO 1406/1415 25020G35KT 3000 SHRA BKN007 BKN013CB
PROB30
TEMPO 1406/1415 TSRAGS
Pas de NOTAMs connus pour ce terrain.
2 SIGMETs publiés pour la FIR Paris (LFFF) :
 
Turbulence forte
LFFF SIGMET 5 VALID 140730/140900 LFPW
LFFF PARIS FIR/UIR SEV TURB OBS AT 0730Z NW OF LINE N4900 W00015 - N5100 E00230 SFC/FL060 STNR WKN=
Orages noyés dans la masse
LFFF SIGMET 4 VALID 140625/140830 LFPW
LFFF PARIS FIR/UIR EMBD TS OBS AT 0625Z WI N5000 W00015 - N5100 E00145 - N5000 E00215 - N4915 W00015 - N5000 W00015 TOP FL280 MOV E 40KT NC=



MET'MAP, la Météo Aéronautique d'un coup d'oeil ! - Copyright ORBIFLY Décembre 2007 - Disclaimer

ORBIFLY MET'MAP TEAM :

Programmation & Développement : Alexandra Zaïnal
Conception & Développement : Baudouin d'Aumeries
Co-Programmation & Développement : Marc-Olivier Méhu
Soutien technique & logistique : Manuel Goepfert

Contact : metmap@orbifly.com




SOURCES & CREDITS :

   NOAA